Date,TemperatureHighF,TemperatureAvgF,TemperatureLowF,DewpointHighF,DewpointAvgF,DewpointLowF,HumidityHigh,HumidityAvg,HumidityLow,PressureMaxIn,PressureMinIn,WindSpeedMaxMPH,WindSpeedAvgMPH,GustSpeedMaxMPH,PrecipitationSumIn
2013-2-1,55.7,38.8,22.1,22.0,18.6,14.0,79,49,23,30.27,30.14,11,3,16,0.00
2013-2-2,56.0,42.2,29.6,21.0,18.5,15.0,64,41,21,30.33,30.21,8,2,11,0.00
2013-2-3,52.4,41.3,27.9,28.0,19.2,15.0,62,43,23,30.25,29.93,7,1,12,0.00
2013-2-4,57.2,44.7,33.1,28.0,24.2,18.0,76,47,23,30.03,29.88,14,3,18,0.00
2013-2-5,60.6,43.7,29.8,22.0,17.5,12.0,64,38,17,30.02,29.87,5,1,12,0.00
2013-2-6,60.2,44.7,27.3,26.0,19.7,14.0,63,39,26,29.91,29.75,10,3,19,0.00
2013-2-7,57.2,43.8,29.9,25.0,20.2,11.0,71,42,18,30.04,29.89,7,2,16,0.00
2013-2-8,57.2,46.2,33.2,22.0,19.5,15.0,56,36,24,30.01,29.62,22,5,29,0.00
2013-2-9,48.7,37.0,29.6,21.0,12.4,1.0,60,38,19,29.80,29.50,30,8,43,0.00
2013-2-10,43.1,33.6,25.0,21.0,12.7,7.0,67,44,24,29.96,29.81,11,4,18,0.00
2013-2-11,47.2,33.0,20.0,22.0,14.3,2.0,80,51,15,30.04,29.90,13,3,19,0.00
2013-2-12,41.5,32.2,24.0,22.0,11.7,4.0,73,46,22,30.20,29.94,15,5,18,0.00
2013-2-13,48.1,35.2,21.2,17.0,11.9,9.0,60,40,24,30.21,30.04,15,5,23,0.00
2013-2-14,52.0,38.8,23.2,19.0,16.1,13.0,67,42,22,30.14,30.01,16,4,28,0.00
2013-2-17,60.6,51.3,33.2,6.0,1.1,-8.0,29,14,6,30.00,29.63,16,5,23,0.00
2013-2-18,52.0,42.0,30.6,17.0,-5.9,-29.0,46,17,3,30.00,29.73,14,5,24,0.00
2013-2-19,59.8,41.8,23.4,33.0,4.1,-14.0,65,25,8,30.01,29.65,22,6,32,0.00
2013-2-20,49.9,43.1,32.9,34.0,26.5,13.0,78,55,24,29.65,29.34,23,8,34,0.00
2013-2-21,45.3,34.6,26.1,28.0,23.1,19.0,92,66,36,29.87,29.43,13,5,23,0.19
2013-2-22,43.1,34.2,27.6,25.0,20.2,12.0,78,59,29,30.04,29.86,12,4,22,0.00
2013-2-23,48.0,35.4,22.8,19.0,13.2,9.0,65,42,23,30.09,29.70,9,2,14,0.00
2013-2-24,41.8,33.8,27.3,25.0,15.5,3.0,88,50,24,29.88,29.58,19,7,30,0.00
2013-2-25,48.3,35.1,23.4,24.0,12.3,-1.0,87,47,14,30.11,29.88,11,3,22,0.03
2013-2-26,47.5,34.7,22.1,17.0,6.1,-12.0,72,36,11,30.08,29.79,23,6,31,0.00
2013-2-27,46.5,33.1,18.5,10.0,5.1,-1.0,64,34,15,30.30,30.09,9,2,15,0.00
2013-2-28,52.9,38.1,25.9,7.0,2.8,-6.0,39,25,9,30.35,30.20,14,4,19,0.00